sensor_id;sensor_type;location;lat;lon;timestamp;temperature;humidity
69938;DHT22;57248;47.320;15.998;2023-05-10T00:00:46;5.52;89.98
69938;DHT22;57248;47.320;15.998;2023-05-10T00:03:18;5.43;90.28
69938;DHT22;57248;47.320;15.998;2023-05-10T00:05:50;5.43;89.91
69938;DHT22;57248;47.320;15.998;2023-05-10T00:08:22;5.40;89.61
69938;DHT22;57248;47.320;15.998;2023-05-10T00:10:54;5.42;90.31
69938;DHT22;57248;47.320;15.998;2023-05-10T00:13:26;5.33;89.48
69938;DHT22;57248;47.320;15.998;2023-05-10T00:15:58;5.33;90.55
69938;DHT22;57248;47.320;15.998;2023-05-10T00:18:30;5.23;90.26
69938;DHT22;57248;47.320;15.998;2023-05-10T00:21:09;5.25;90.22
69938;DHT22;57248;47.320;15.998;2023-05-10T00:23:41;5.21;89.98
69938;DHT22;57248;47.320;15.998;2023-05-10T00:26:20;5.14;89.99
69938;DHT22;57248;47.320;15.998;2023-05-10T00:28:55;5.09;89.71
69938;DHT22;57248;47.320;15.998;2023-05-10T00:31:27;5.04;90.06
69938;DHT22;57248;47.320;15.998;2023-05-10T00:33:52;5.01;89.99
69938;DHT22;57248;47.320;15.998;2023-05-10T00:36:25;4.98;90.18
69938;DHT22;57248;47.320;15.998;2023-05-10T00:38:57;4.91;89.57
69938;DHT22;57248;47.320;15.998;2023-05-10T00:41:29;4.84;89.97
69938;DHT22;57248;47.320;15.998;2023-05-10T00:44:06;4.80;90.23
69938;DHT22;57248;47.320;15.998;2023-05-10T00:46:38;4.80;90.78
69938;DHT22;57248;47.320;15.998;2023-05-10T00:49:10;4.84;90.77
69938;DHT22;57248;47.320;15.998;2023-05-10T00:51:36;4.77;91.07
69938;DHT22;57248;47.320;15.998;2023-05-10T00:54:10;4.71;90.80
69938;DHT22;57248;47.320;15.998;2023-05-10T00:56:43;4.73;91.35
69938;DHT22;57248;47.320;15.998;2023-05-10T00:59:20;4.70;90.94
69938;DHT22;57248;47.320;15.998;2023-05-10T01:01:53;4.63;90.14
69938;DHT22;57248;47.320;15.998;2023-05-10T01:04:25;4.57;91.69
69938;DHT22;57248;47.320;15.998;2023-05-10T01:06:57;4.56;92.10
69938;DHT22;57248;47.320;15.998;2023-05-10T01:09:29;4.56;92.94
69938;DHT22;57248;47.320;15.998;2023-05-10T01:12:02;4.53;92.80
69938;DHT22;57248;47.320;15.998;2023-05-10T01:14:35;4.54;92.00
69938;DHT22;57248;47.320;15.998;2023-05-10T01:17:08;4.54;91.52
69938;DHT22;57248;47.320;15.998;2023-05-10T01:19:42;4.42;92.44
69938;DHT22;57248;47.320;15.998;2023-05-10T01:34:09;4.19;92.30
69938;DHT22;57248;47.320;15.998;2023-05-10T01:37:08;4.26;92.22
69938;DHT22;57248;47.320;15.998;2023-05-10T01:39:59;4.20;92.50
69938;DHT22;57248;47.320;15.998;2023-05-10T01:42:47;4.10;91.96
69938;DHT22;57248;47.320;15.998;2023-05-10T01:45:28;4.03;91.84
69938;DHT22;57248;47.320;15.998;2023-05-10T01:48:10;4.12;92.86
69938;DHT22;57248;47.320;15.998;2023-05-10T01:50:43;4.07;92.33
69938;DHT22;57248;47.320;15.998;2023-05-10T01:53:18;3.99;92.42
69938;DHT22;57248;47.320;15.998;2023-05-10T01:55:52;3.96;92.64
69938;DHT22;57248;47.320;15.998;2023-05-10T01:58:29;3.98;93.13
69938;DHT22;57248;47.320;15.998;2023-05-10T02:01:03;3.98;92.29
69938;DHT22;57248;47.320;15.998;2023-05-10T02:03:36;3.86;92.79
69938;DHT22;57248;47.320;15.998;2023-05-10T02:06:10;3.88;93.20
69938;DHT22;57248;47.320;15.998;2023-05-10T02:08:45;3.71;92.24
69938;DHT22;57248;47.320;15.998;2023-05-10T02:11:19;3.70;92.75
69938;DHT22;57248;47.320;15.998;2023-05-10T02:13:55;3.79;93.88
69938;DHT22;57248;47.320;15.998;2023-05-10T02:16:29;3.78;93.18
69938;DHT22;57248;47.320;15.998;2023-05-10T02:19:03;3.77;92.82
69938;DHT22;57248;47.320;15.998;2023-05-10T02:21:37;3.79;92.84
69938;DHT22;57248;47.320;15.998;2023-05-10T02:24:11;3.77;94.45
69938;DHT22;57248;47.320;15.998;2023-05-10T02:26:51;3.75;94.24
69938;DHT22;57248;47.320;15.998;2023-05-10T02:29:27;3.72;93.82
69938;DHT22;57248;47.320;15.998;2023-05-10T02:31:59;3.65;93.25
69938;DHT22;57248;47.320;15.998;2023-05-10T02:34:32;3.64;93.55
69938;DHT22;57248;47.320;15.998;2023-05-10T02:37:06;3.55;93.62
69938;DHT22;57248;47.320;15.998;2023-05-10T02:39:38;3.58;93.43
69938;DHT22;57248;47.320;15.998;2023-05-10T02:42:19;3.53;93.33
69938;DHT22;57248;47.320;15.998;2023-05-10T02:44:59;3.50;93.32
69938;DHT22;57248;47.320;15.998;2023-05-10T02:47:31;3.41;92.59
69938;DHT22;57248;47.320;15.998;2023-05-10T02:50:04;3.28;92.89
69938;DHT22;57248;47.320;15.998;2023-05-10T02:52:45;3.38;94.40
69938;DHT22;57248;47.320;15.998;2023-05-10T02:55:22;3.37;92.96
69938;DHT22;57248;47.320;15.998;2023-05-10T02:57:59;3.38;93.86
69938;DHT22;57248;47.320;15.998;2023-05-10T03:00:31;3.34;93.56
69938;DHT22;57248;47.320;15.998;2023-05-10T03:03:03;3.27;93.35
69938;DHT22;57248;47.320;15.998;2023-05-10T03:05:36;3.22;93.11
69938;DHT22;57248;47.320;15.998;2023-05-10T03:08:08;3.24;93.93
69938;DHT22;57248;47.320;15.998;2023-05-10T03:10:47;3.28;94.63
69938;DHT22;57248;47.320;15.998;2023-05-10T03:13:31;3.19;93.41
69938;DHT22;57248;47.320;15.998;2023-05-10T03:16:15;3.12;94.24
69938;DHT22;57248;47.320;15.998;2023-05-10T03:18:55;3.17;93.84
69938;DHT22;57248;47.320;15.998;2023-05-10T03:21:29;3.14;93.93
69938;DHT22;57248;47.320;15.998;2023-05-10T03:24:07;3.14;94.80
69938;DHT22;57248;47.320;15.998;2023-05-10T03:26:40;3.17;94.81
69938;DHT22;57248;47.320;15.998;2023-05-10T03:29:17;3.16;93.77
69938;DHT22;57248;47.320;15.998;2023-05-10T03:31:49;3.22;94.21
69938;DHT22;57248;47.320;15.998;2023-05-10T03:34:24;3.14;94.03
69938;DHT22;57248;47.320;15.998;2023-05-10T03:36:57;3.31;94.66
69938;DHT22;57248;47.320;15.998;2023-05-10T03:39:30;3.34;95.03
69938;DHT22;57248;47.320;15.998;2023-05-10T03:42:07;3.33;94.92
69938;DHT22;57248;47.320;15.998;2023-05-10T03:44:39;3.28;94.05
69938;DHT22;57248;47.320;15.998;2023-05-10T03:47:12;3.27;94.22
69938;DHT22;57248;47.320;15.998;2023-05-10T03:49:44;3.30;94.20
69938;DHT22;57248;47.320;15.998;2023-05-10T03:52:16;3.33;93.99
69938;DHT22;57248;47.320;15.998;2023-05-10T03:54:48;4.26;99.33
69938;DHT22;57248;47.320;15.998;2023-05-10T03:57:20;3.67;94.66
69938;DHT22;57248;47.320;15.998;2023-05-10T03:59:52;3.60;94.48
69938;DHT22;57248;47.320;15.998;2023-05-10T04:02:24;3.53;94.24
69938;DHT22;57248;47.320;15.998;2023-05-10T04:04:56;3.55;94.38
69938;DHT22;57248;47.320;15.998;2023-05-10T04:07:28;3.61;94.00
69938;DHT22;57248;47.320;15.998;2023-05-10T04:10:03;3.57;94.21
69938;DHT22;57248;47.320;15.998;2023-05-10T04:12:35;3.74;93.68
69938;DHT22;57248;47.320;15.998;2023-05-10T04:15:08;3.91;94.09
69938;DHT22;57248;47.320;15.998;2023-05-10T04:17:40;4.01;93.51
69938;DHT22;57248;47.320;15.998;2023-05-10T04:20:12;4.16;94.11
69938;DHT22;57248;47.320;15.998;2023-05-10T04:22:51;4.20;92.66
69938;DHT22;57248;47.320;15.998;2023-05-10T04:25:23;4.37;93.96
69938;DHT22;57248;47.320;15.998;2023-05-10T04:27:55;4.52;94.25
69938;DHT22;57248;47.320;15.998;2023-05-10T04:30:28;4.71;94.00
69938;DHT22;57248;47.320;15.998;2023-05-10T04:33:01;4.77;93.16
69938;DHT22;57248;47.320;15.998;2023-05-10T04:35:34;4.98;92.81
69938;DHT22;57248;47.320;15.998;2023-05-10T04:37:59;5.02;92.24
69938;DHT22;57248;47.320;15.998;2023-05-10T04:40:31;5.12;92.89
69938;DHT22;57248;47.320;15.998;2023-05-10T04:43:03;5.23;93.22
69938;DHT22;57248;47.320;15.998;2023-05-10T04:45:35;6.65;96.22
69938;DHT22;57248;47.320;15.998;2023-05-10T04:48:00;6.10;91.55
69938;DHT22;57248;47.320;15.998;2023-05-10T04:50:33;6.28;91.17
69938;DHT22;57248;47.320;15.998;2023-05-10T04:53:05;6.39;90.60
69938;DHT22;57248;47.320;15.998;2023-05-10T04:55:37;6.53;91.06
69938;DHT22;57248;47.320;15.998;2023-05-10T04:58:10;6.75;90.09
69938;DHT22;57248;47.320;15.998;2023-05-10T05:00:42;7.00;89.14
69938;DHT22;57248;47.320;15.998;2023-05-10T05:03:14;7.24;89.31
69938;DHT22;57248;47.320;15.998;2023-05-10T05:05:46;7.50;88.77
69938;DHT22;57248;47.320;15.998;2023-05-10T05:08:11;7.65;88.73
69938;DHT22;57248;47.320;15.998;2023-05-10T05:10:44;7.93;90.32
69938;DHT22;57248;47.320;15.998;2023-05-10T05:13:16;8.22;88.83
69938;DHT22;57248;47.320;15.998;2023-05-10T05:15:48;8.40;87.88
69938;DHT22;57248;47.320;15.998;2023-05-10T05:18:20;8.68;87.55
69938;DHT22;57248;47.320;15.998;2023-05-10T05:20:53;8.93;86.65
69938;DHT22;57248;47.320;15.998;2023-05-10T05:23:25;9.30;86.33
69938;DHT22;57248;47.320;15.998;2023-05-10T05:26:13;9.55;85.25
69938;DHT22;57248;47.320;15.998;2023-05-10T05:28:46;9.78;85.66
69938;DHT22;57248;47.320;15.998;2023-05-10T05:31:13;10.05;84.46
69938;DHT22;57248;47.320;15.998;2023-05-10T05:33:45;10.28;84.11
69938;DHT22;57248;47.320;15.998;2023-05-10T05:36:17;10.57;84.32
69938;DHT22;57248;47.320;15.998;2023-05-10T05:38:49;10.91;83.53
69938;DHT22;57248;47.320;15.998;2023-05-10T05:41:21;11.17;83.80
69938;DHT22;57248;47.320;15.998;2023-05-10T05:43:53;11.48;81.72
69938;DHT22;57248;47.320;15.998;2023-05-10T05:46:25;11.71;81.48
69938;DHT22;57248;47.320;15.998;2023-05-10T05:48:57;12.04;80.08
69938;DHT22;57248;47.320;15.998;2023-05-10T05:51:29;12.41;79.20
69938;DHT22;57248;47.320;15.998;2023-05-10T05:54:01;12.64;79.07
69938;DHT22;57248;47.320;15.998;2023-05-10T05:56:35;12.62;77.40
69938;DHT22;57248;47.320;15.998;2023-05-10T05:59:07;12.96;76.46
69938;DHT22;57248;47.320;15.998;2023-05-10T06:01:39;13.20;77.69
69938;DHT22;57248;47.320;15.998;2023-05-10T06:04:04;13.57;77.44
69938;DHT22;57248;47.320;15.998;2023-05-10T06:06:36;13.63;75.68
69938;DHT22;57248;47.320;15.998;2023-05-10T06:09:09;14.00;74.18
69938;DHT22;57248;47.320;15.998;2023-05-10T06:11:41;14.48;72.73
69938;DHT22;57248;47.320;15.998;2023-05-10T06:14:13;14.81;71.80
69938;DHT22;57248;47.320;15.998;2023-05-10T06:16:39;15.04;71.96
69938;DHT22;57248;47.320;15.998;2023-05-10T06:19:11;15.38;70.78
69938;DHT22;57248;47.320;15.998;2023-05-10T06:21:43;15.54;70.29
69938;DHT22;57248;47.320;15.998;2023-05-10T06:24:15;15.73;67.25
69938;DHT22;57248;47.320;15.998;2023-05-10T06:26:54;15.62;66.69
69938;DHT22;57248;47.320;15.998;2023-05-10T06:29:26;16.13;66.52
69938;DHT22;57248;47.320;15.998;2023-05-10T06:31:59;16.28;65.69
69938;DHT22;57248;47.320;15.998;2023-05-10T06:34:31;16.31;63.67
69938;DHT22;57248;47.320;15.998;2023-05-10T06:37:04;16.02;61.51
69938;DHT22;57248;47.320;15.998;2023-05-10T06:39:36;16.18;65.00
69938;DHT22;57248;47.320;15.998;2023-05-10T06:42:09;16.17;63.66
69938;DHT22;57248;47.320;15.998;2023-05-10T06:44:45;16.58;62.79
69938;DHT22;57248;47.320;15.998;2023-05-10T06:47:17;16.58;59.92
69938;DHT22;57248;47.320;15.998;2023-05-10T06:49:49;15.96;56.01
69938;DHT22;57248;47.320;15.998;2023-05-10T06:52:21;16.92;58.57
69938;DHT22;57248;47.320;15.998;2023-05-10T06:54:54;16.46;54.95
69938;DHT22;57248;47.320;15.998;2023-05-10T06:57:26;16.77;55.80
69938;DHT22;57248;47.320;15.998;2023-05-10T06:59:59;17.50;56.19
69938;DHT22;57248;47.320;15.998;2023-05-10T07:02:31;16.99;53.59
69938;DHT22;57248;47.320;15.998;2023-05-10T07:04:56;16.96;55.94
69938;DHT22;57248;47.320;15.998;2023-05-10T07:07:29;17.59;53.45
69938;DHT22;57248;47.320;15.998;2023-05-10T07:10:01;17.46;52.88
69938;DHT22;57248;47.320;15.998;2023-05-10T07:12:34;16.98;52.50
69938;DHT22;57248;47.320;15.998;2023-05-10T07:15:07;16.37;54.18
69938;DHT22;57248;47.320;15.998;2023-05-10T07:17:39;16.99;54.37
69938;DHT22;57248;47.320;15.998;2023-05-10T07:20:11;17.49;53.03
69938;DHT22;57248;47.320;15.998;2023-05-10T07:22:43;18.24;53.92
69938;DHT22;57248;47.320;15.998;2023-05-10T07:25:17;17.51;53.53
69938;DHT22;57248;47.320;15.998;2023-05-10T07:27:49;17.71;51.91
69938;DHT22;57248;47.320;15.998;2023-05-10T07:30:22;17.85;52.19
69938;DHT22;57248;47.320;15.998;2023-05-10T07:32:54;18.11;52.81
69938;DHT22;57248;47.320;15.998;2023-05-10T07:35:26;18.56;51.38
69938;DHT22;57248;47.320;15.998;2023-05-10T07:37:58;18.62;50.82
69938;DHT22;57248;47.320;15.998;2023-05-10T07:40:31;18.89;51.30
69938;DHT22;57248;47.320;15.998;2023-05-10T07:43:03;19.42;48.87
69938;DHT22;57248;47.320;15.998;2023-05-10T07:45:35;19.71;49.34
69938;DHT22;57248;47.320;15.998;2023-05-10T07:48:07;19.95;48.84
69938;DHT22;57248;47.320;15.998;2023-05-10T07:50:39;19.20;51.59
69938;DHT22;57248;47.320;15.998;2023-05-10T07:53:11;20.70;47.35
69938;DHT22;57248;47.320;15.998;2023-05-10T07:55:43;21.31;45.86
69938;DHT22;57248;47.320;15.998;2023-05-10T07:58:15;20.13;47.15
69938;DHT22;57248;47.320;15.998;2023-05-10T08:00:47;20.05;46.84
69938;DHT22;57248;47.320;15.998;2023-05-10T08:03:20;21.47;44.40
69938;DHT22;57248;47.320;15.998;2023-05-10T08:05:52;22.76;40.53
69938;DHT22;57248;47.320;15.998;2023-05-10T08:08:24;24.26;40.28
69938;DHT22;57248;47.320;15.998;2023-05-10T08:10:56;22.99;39.56
69938;DHT22;57248;47.320;15.998;2023-05-10T08:13:28;23.21;41.12
69938;DHT22;57248;47.320;15.998;2023-05-10T08:16:00;21.32;44.58
69938;DHT22;57248;47.320;15.998;2023-05-10T08:18:32;23.72;40.28
69938;DHT22;57248;47.320;15.998;2023-05-10T08:21:04;23.86;38.87
69938;DHT22;57248;47.320;15.998;2023-05-10T08:23:43;25.47;37.30
69938;DHT22;57248;47.320;15.998;2023-05-10T08:26:15;26.13;36.76
69938;DHT22;57248;47.320;15.998;2023-05-10T08:28:55;24.18;39.64
69938;DHT22;57248;47.320;15.998;2023-05-10T08:31:27;24.33;38.72
69938;DHT22;57248;47.320;15.998;2023-05-10T08:34:00;27.26;33.43
69938;DHT22;57248;47.320;15.998;2023-05-10T08:36:32;24.94;37.89
69938;DHT22;57248;47.320;15.998;2023-05-10T08:39:05;23.89;40.41
69938;DHT22;57248;47.320;15.998;2023-05-10T08:41:38;26.35;35.60
69938;DHT22;57248;47.320;15.998;2023-05-10T08:44:10;25.18;37.97
69938;DHT22;57248;47.320;15.998;2023-05-10T08:46:45;23.94;37.59
69938;DHT22;57248;47.320;15.998;2023-05-10T08:49:17;26.16;36.94
69938;DHT22;57248;47.320;15.998;2023-05-10T08:51:55;25.29;36.46
69938;DHT22;57248;47.320;15.998;2023-05-10T08:54:31;25.79;36.46
69938;DHT22;57248;47.320;15.998;2023-05-10T08:57:03;29.11;33.05
69938;DHT22;57248;47.320;15.998;2023-05-10T08:59:36;25.90;36.47
69938;DHT22;57248;47.320;15.998;2023-05-10T09:02:11;27.63;33.56
69938;DHT22;57248;47.320;15.998;2023-05-10T09:04:44;25.55;35.06
69938;DHT22;57248;47.320;15.998;2023-05-10T09:07:17;28.13;29.81
69938;DHT22;57248;47.320;15.998;2023-05-10T09:09:50;25.49;34.42
69938;DHT22;57248;47.320;15.998;2023-05-10T09:12:23;23.28;37.92
69938;DHT22;57248;47.320;15.998;2023-05-10T09:14:55;21.16;41.11
69938;DHT22;57248;47.320;15.998;2023-05-10T09:17:28;21.96;39.73
69938;DHT22;57248;47.320;15.998;2023-05-10T09:20:02;24.92;35.19
69938;DHT22;57248;47.320;15.998;2023-05-10T09:22:41;22.29;39.71
69938;DHT22;57248;47.320;15.998;2023-05-10T09:25:14;26.52;34.85
69938;DHT22;57248;47.320;15.998;2023-05-10T09:27:54;28.83;33.21
69938;DHT22;57248;47.320;15.998;2023-05-10T09:30:30;27.39;34.24
69938;DHT22;57248;47.320;15.998;2023-05-10T09:33:02;24.30;37.37
69938;DHT22;57248;47.320;15.998;2023-05-10T09:35:35;23.98;38.71
69938;DHT22;57248;47.320;15.998;2023-05-10T09:38:07;26.76;35.24
69938;DHT22;57248;47.320;15.998;2023-05-10T09:40:39;27.54;34.81
69938;DHT22;57248;47.320;15.998;2023-05-10T09:43:13;25.90;36.16
69938;DHT22;57248;47.320;15.998;2023-05-10T09:45:48;27.03;35.50
69938;DHT22;57248;47.320;15.998;2023-05-10T09:48:23;25.05;38.19
69938;DHT22;57248;47.320;15.998;2023-05-10T09:50:58;25.92;35.29
69938;DHT22;57248;47.320;15.998;2023-05-10T09:53:32;25.82;35.75
69938;DHT22;57248;47.320;15.998;2023-05-10T09:56:04;25.58;35.34
69938;DHT22;57248;47.320;15.998;2023-05-10T09:58:37;25.07;35.61
69938;DHT22;57248;47.320;15.998;2023-05-10T10:01:11;27.76;32.58
69938;DHT22;57248;47.320;15.998;2023-05-10T10:03:46;28.13;31.78
69938;DHT22;57248;47.320;15.998;2023-05-10T10:06:19;27.46;34.52
69938;DHT22;57248;47.320;15.998;2023-05-10T10:08:52;24.55;36.08
69938;DHT22;57248;47.320;15.998;2023-05-10T10:11:24;27.97;33.33
69938;DHT22;57248;47.320;15.998;2023-05-10T10:13:56;26.41;34.73
69938;DHT22;57248;47.320;15.998;2023-05-10T10:16:29;26.96;35.10
69938;DHT22;57248;47.320;15.998;2023-05-10T10:19:01;27.65;32.66
69938;DHT22;57248;47.320;15.998;2023-05-10T10:21:33;28.42;31.80
69938;DHT22;57248;47.320;15.998;2023-05-10T10:24:12;25.39;36.19
69938;DHT22;57248;47.320;15.998;2023-05-10T10:26:44;25.93;36.46
69938;DHT22;57248;47.320;15.998;2023-05-10T10:34:39;30.95;29.80
69938;DHT22;57248;47.320;15.998;2023-05-10T10:37:12;28.59;32.50
69938;DHT22;57248;47.320;15.998;2023-05-10T10:39:44;28.13;32.22
69938;DHT22;57248;47.320;15.998;2023-05-10T10:42:43;23.58;38.34
69938;DHT22;57248;47.320;15.998;2023-05-10T10:45:16;23.55;38.46
69938;DHT22;57248;47.320;15.998;2023-05-10T10:48:19;24.61;38.15
69938;DHT22;57248;47.320;15.998;2023-05-10T10:50:45;24.78;35.18
69938;DHT22;57248;47.320;15.998;2023-05-10T10:53:18;23.92;36.74
69938;DHT22;57248;47.320;15.998;2023-05-10T10:56:04;26.55;34.05
69938;DHT22;57248;47.320;15.998;2023-05-10T10:58:39;25.46;35.24
69938;DHT22;57248;47.320;15.998;2023-05-10T11:01:15;23.40;37.65
69938;DHT22;57248;47.320;15.998;2023-05-10T11:06:34;25.83;34.66
69938;DHT22;57248;47.320;15.998;2023-05-10T11:11:51;29.93;29.04
69938;DHT22;57248;47.320;15.998;2023-05-10T11:14:23;27.44;31.59
69938;DHT22;57248;47.320;15.998;2023-05-10T11:16:55;29.52;29.92
69938;DHT22;57248;47.320;15.998;2023-05-10T11:19:27;30.03;28.30
69938;DHT22;57248;47.320;15.998;2023-05-10T11:24:37;28.06;30.51
69938;DHT22;57248;47.320;15.998;2023-05-10T11:27:18;27.58;29.77
69938;DHT22;57248;47.320;15.998;2023-05-10T11:29:53;26.03;32.14
69938;DHT22;57248;47.320;15.998;2023-05-10T11:32:25;31.80;28.27
69938;DHT22;57248;47.320;15.998;2023-05-10T11:34:51;28.05;28.63
69938;DHT22;57248;47.320;15.998;2023-05-10T11:37:23;26.01;31.71
69938;DHT22;57248;47.320;15.998;2023-05-10T11:39:55;27.26;30.22
69938;DHT22;57248;47.320;15.998;2023-05-10T11:42:28;27.61;29.16
69938;DHT22;57248;47.320;15.998;2023-05-10T11:44:54;25.65;32.43
69938;DHT22;57248;47.320;15.998;2023-05-10T11:47:26;26.34;31.78
69938;DHT22;57248;47.320;15.998;2023-05-10T11:49:58;26.89;33.20
69938;DHT22;57248;47.320;15.998;2023-05-10T11:52:35;28.62;28.67
69938;DHT22;57248;47.320;15.998;2023-05-10T11:55:08;29.22;28.18
69938;DHT22;57248;47.320;15.998;2023-05-10T11:57:40;30.81;28.63
69938;DHT22;57248;47.320;15.998;2023-05-10T12:00:14;30.23;28.56
69938;DHT22;57248;47.320;15.998;2023-05-10T12:02:47;30.56;27.17
69938;DHT22;57248;47.320;15.998;2023-05-10T12:05:20;30.67;29.20
69938;DHT22;57248;47.320;15.998;2023-05-10T12:08:10;32.52;25.55
69938;DHT22;57248;47.320;15.998;2023-05-10T12:10:44;32.04;27.19
69938;DHT22;57248;47.320;15.998;2023-05-10T12:13:17;28.41;30.62
69938;DHT22;57248;47.320;15.998;2023-05-10T12:15:49;32.59;26.16
69938;DHT22;57248;47.320;15.998;2023-05-10T12:18:22;32.52;25.59
69938;DHT22;57248;47.320;15.998;2023-05-10T12:21:02;30.78;26.83
69938;DHT22;57248;47.320;15.998;2023-05-10T12:23:41;30.87;29.09
69938;DHT22;57248;47.320;15.998;2023-05-10T12:26:13;29.79;28.76
69938;DHT22;57248;47.320;15.998;2023-05-10T12:28:45;29.85;29.38
69938;DHT22;57248;47.320;15.998;2023-05-10T12:31:18;31.36;27.80
69938;DHT22;57248;47.320;15.998;2023-05-10T12:33:50;32.18;27.51
69938;DHT22;57248;47.320;15.998;2023-05-10T12:36:23;27.84;32.48
69938;DHT22;57248;47.320;15.998;2023-05-10T12:39:02;28.52;30.78
69938;DHT22;57248;47.320;15.998;2023-05-10T12:41:34;32.11;26.50
69938;DHT22;57248;47.320;15.998;2023-05-10T12:44:06;29.88;27.73
69938;DHT22;57248;47.320;15.998;2023-05-10T12:46:38;28.91;31.97
69938;DHT22;57248;47.320;15.998;2023-05-10T12:49:11;26.64;33.82
69938;DHT22;57248;47.320;15.998;2023-05-10T12:51:43;24.56;35.65
69938;DHT22;57248;47.320;15.998;2023-05-10T12:54:15;24.40;36.56
69938;DHT22;57248;47.320;15.998;2023-05-10T12:56:47;23.00;38.12
69938;DHT22;57248;47.320;15.998;2023-05-10T12:59:22;23.00;39.87
69938;DHT22;57248;47.320;15.998;2023-05-10T13:01:54;23.43;38.88
69938;DHT22;57248;47.320;15.998;2023-05-10T13:04:26;21.91;40.67
69938;DHT22;57248;47.320;15.998;2023-05-10T13:06:58;22.49;41.13
69938;DHT22;57248;47.320;15.998;2023-05-10T13:09:30;23.46;40.59
69938;DHT22;57248;47.320;15.998;2023-05-10T13:12:02;21.84;40.52
69938;DHT22;57248;47.320;15.998;2023-05-10T13:14:34;21.84;41.08
69938;DHT22;57248;47.320;15.998;2023-05-10T13:17:06;21.67;41.19
69938;DHT22;57248;47.320;15.998;2023-05-10T13:19:38;22.31;40.30
69938;DHT22;57248;47.320;15.998;2023-05-10T13:22:10;26.12;36.80
69938;DHT22;57248;47.320;15.998;2023-05-10T13:24:42;24.68;37.44
69938;DHT22;57248;47.320;15.998;2023-05-10T13:27:21;25.92;37.19
69938;DHT22;57248;47.320;15.998;2023-05-10T13:29:54;23.27;39.35
69938;DHT22;57248;47.320;15.998;2023-05-10T13:32:26;22.88;39.39
69938;DHT22;57248;47.320;15.998;2023-05-10T13:34:59;22.01;40.58
69938;DHT22;57248;47.320;15.998;2023-05-10T13:37:32;22.80;40.75
69938;DHT22;57248;47.320;15.998;2023-05-10T13:40:07;22.79;39.65
69938;DHT22;57248;47.320;15.998;2023-05-10T13:42:39;21.87;40.16
69938;DHT22;57248;47.320;15.998;2023-05-10T13:45:12;21.26;42.08
69938;DHT22;57248;47.320;15.998;2023-05-10T13:47:44;20.99;41.92
69938;DHT22;57248;47.320;15.998;2023-05-10T13:50:16;23.68;37.27
69938;DHT22;57248;47.320;15.998;2023-05-10T13:52:49;24.63;36.73
69938;DHT22;57248;47.320;15.998;2023-05-10T13:55:21;24.36;37.93
69938;DHT22;57248;47.320;15.998;2023-05-10T13:57:54;22.86;39.35
69938;DHT22;57248;47.320;15.998;2023-05-10T14:00:20;20.81;43.33
69938;DHT22;57248;47.320;15.998;2023-05-10T14:02:51;19.85;46.09
69938;DHT22;57248;47.320;15.998;2023-05-10T14:05:24;21.40;42.88
69938;DHT22;57248;47.320;15.998;2023-05-10T14:07:56;21.96;41.60
69938;DHT22;57248;47.320;15.998;2023-05-10T14:10:29;19.25;46.47
69938;DHT22;57248;47.320;15.998;2023-05-10T14:13:01;19.04;47.75
69938;DHT22;57248;47.320;15.998;2023-05-10T14:15:34;19.14;47.55
69938;DHT22;57248;47.320;15.998;2023-05-10T14:18:06;18.34;48.29
69938;DHT22;57248;47.320;15.998;2023-05-10T14:20:38;18.28;48.40
69938;DHT22;57248;47.320;15.998;2023-05-10T14:23:11;18.72;47.39
69938;DHT22;57248;47.320;15.998;2023-05-10T14:25:52;18.94;48.38
69938;DHT22;57248;47.320;15.998;2023-05-10T14:28:25;19.62;48.09
69938;DHT22;57248;47.320;15.998;2023-05-10T14:30:58;19.11;48.12
69938;DHT22;57248;47.320;15.998;2023-05-10T14:33:30;18.67;49.29
69938;DHT22;57248;47.320;15.998;2023-05-10T14:36:02;18.66;49.25
69938;DHT22;57248;47.320;15.998;2023-05-10T14:38:35;18.39;49.80
69938;DHT22;57248;47.320;15.998;2023-05-10T14:41:07;18.52;50.15
69938;DHT22;57248;47.320;15.998;2023-05-10T14:43:40;18.09;50.43
69938;DHT22;57248;47.320;15.998;2023-05-10T14:46:14;18.31;49.73
69938;DHT22;57248;47.320;15.998;2023-05-10T14:48:45;18.04;48.67
69938;DHT22;57248;47.320;15.998;2023-05-10T14:51:17;18.06;49.53
69938;DHT22;57248;47.320;15.998;2023-05-10T14:53:53;18.22;49.01
69938;DHT22;57248;47.320;15.998;2023-05-10T14:56:25;18.14;48.28
69938;DHT22;57248;47.320;15.998;2023-05-10T14:58:57;18.43;49.23
69938;DHT22;57248;47.320;15.998;2023-05-10T15:01:29;18.16;48.83
69938;DHT22;57248;47.320;15.998;2023-05-10T15:04:04;18.08;48.46
69938;DHT22;57248;47.320;15.998;2023-05-10T15:06:35;18.51;47.64
69938;DHT22;57248;47.320;15.998;2023-05-10T15:09:08;19.08;47.72
69938;DHT22;57248;47.320;15.998;2023-05-10T15:11:40;18.86;47.85
69938;DHT22;57248;47.320;15.998;2023-05-10T15:14:12;18.92;48.36
69938;DHT22;57248;47.320;15.998;2023-05-10T15:16:46;18.89;47.32
69938;DHT22;57248;47.320;15.998;2023-05-10T15:19:19;18.60;48.22
69938;DHT22;57248;47.320;15.998;2023-05-10T15:21:52;18.94;48.76
69938;DHT22;57248;47.320;15.998;2023-05-10T15:24:18;18.86;50.47
69938;DHT22;57248;47.320;15.998;2023-05-10T15:26:49;18.99;50.02
69938;DHT22;57248;47.320;15.998;2023-05-10T15:29:28;18.53;49.16
69938;DHT22;57248;47.320;15.998;2023-05-10T15:32:01;18.38;49.01
69938;DHT22;57248;47.320;15.998;2023-05-10T15:34:35;18.53;50.10
69938;DHT22;57248;47.320;15.998;2023-05-10T15:37:07;18.89;49.90
69938;DHT22;57248;47.320;15.998;2023-05-10T15:39:39;18.99;48.42
69938;DHT22;57248;47.320;15.998;2023-05-10T15:42:11;18.72;47.88
69938;DHT22;57248;47.320;15.998;2023-05-10T15:44:43;18.82;47.94
69938;DHT22;57248;47.320;15.998;2023-05-10T15:47:16;18.76;48.88
69938;DHT22;57248;47.320;15.998;2023-05-10T15:49:48;18.93;49.79
69938;DHT22;57248;47.320;15.998;2023-05-10T15:52:20;19.44;49.02
69938;DHT22;57248;47.320;15.998;2023-05-10T15:54:54;19.30;48.41
69938;DHT22;57248;47.320;15.998;2023-05-10T15:57:26;19.21;49.12
69938;DHT22;57248;47.320;15.998;2023-05-10T15:59:58;19.17;47.56
69938;DHT22;57248;47.320;15.998;2023-05-10T16:02:24;19.30;47.84
69938;DHT22;57248;47.320;15.998;2023-05-10T16:04:56;19.28;47.86
69938;DHT22;57248;47.320;15.998;2023-05-10T16:07:28;18.86;48.34
69938;DHT22;57248;47.320;15.998;2023-05-10T16:10:00;19.35;49.36
69938;DHT22;57248;47.320;15.998;2023-05-10T16:12:34;18.96;47.49
69938;DHT22;57248;47.320;15.998;2023-05-10T16:15:07;18.65;50.58
69938;DHT22;57248;47.320;15.998;2023-05-10T16:17:33;18.16;50.36
69938;DHT22;57248;47.320;15.998;2023-05-10T16:20:05;17.84;50.83
69938;DHT22;57248;47.320;15.998;2023-05-10T16:22:37;17.64;50.62